Аэропорт
Игнатьево (UHBB)

 UHBB / BQS
ЗЦ Хабаровск
Хабаровск (UHHH)
Хабаровск (UHHH)
 50.42540, 127.41200  / 638 ft

 UHBB 270930Z 22003MPS 9999 BKN033 05/M02 Q1013 R36/090060 NOSIG RMK QFE742/0989
 TAF UHBB 262250Z 2700/2724 23003G08MPS 9999 SCT030CB TEMPO 2700/2706 3100 -SHRASN BKN011 BKN020CB BECMG 2712/2714 27003MPS
uhbb_aip_1605, UHBB_j_0220
показать схемы
Название сценария Тип сценария Flight Simulator 9 Flight Simulator X Prepar3D v2 Prepar3D v3 Prepar3D v4 Prepar3D v5 xPlane
UHBB P3Dv4 бесплатный
uhbb-scenery-fs9-1406 бесплатный
uhbb-scenery-xpl-1209 бесплатный


2020 © VATRUS division (Privacy Policy)